Nathan G — WDJ6251 — position and weather

sailwx.info

Track history (hours):
 
Tides and Currents Weather Stations Pressure Air Temp Water Temp Dewpoint Dewpoint Depression Visibility Wind Speed Wind Dir Waves Ship Positions

Nathan G

Owner: New York State Marine Highway Transportation LLC, Troy, NY. More information available from US FCC via Universal Licensing System and Coast Guard Vessel Documentation Center.

Last reported at 2018-Feb-18 01:29 UTC. Time now 2018-Feb-18 03:32 UTC.
Position N 40°34' W 074°01'.

Length 18 m; draft 3 m.

MMSI: 367795910.

Date/timePositionNaut miles runAvg speedWind from/ knotsBaromVisibWave heightAir tempDewpointWater temp
2018-Feb-18 01:29N 40°34' W 074°01'4 7.8
2018-Feb-18 01:00N 40°38' W 074°03'2 3.8
2018-Feb-18 00:30N 40°39' W 074°02'3 5.9
2018-Feb-18 00:00N 40°36' W 074°03'4 6.9
2018-Feb-17 23:29N 40°34' W 073°59'3 5.7
2018-Feb-17 22:58N 40°34' W 073°55'3 5.7
2018-Feb-17 22:29N 40°35' W 073°52'9 1.0
2018-Feb-17 13:37N 40°39' W 074°02'1 7.0
2018-Feb-17 13:30N 40°40' W 074°01'1 1.6
2018-Feb-17 13:00N 40°40' W 074°00'0 0.0
2018-Feb-17 12:30N 40°40' W 074°00'0 0.0
2018-Feb-17 12:00N 40°40' W 074°00'0 0.0
2018-Feb-17 11:30N 40°40' W 074°00'0 0.0
2018-Feb-17 11:00N 40°40' W 074°00'0 0.0
2018-Feb-17 10:30N 40°40' W 074°00'0 0.0
2018-Feb-17 10:00N 40°40' W 074°00'0 0.0
2018-Feb-17 09:30N 40°40' W 074°00'0 0.0
2018-Feb-17 09:00N 40°40' W 074°00'0 0.0
2018-Feb-17 08:30N 40°40' W 074°00'0 0.0
2018-Feb-17 08:00N 40°40' W 074°00'0 0.0
2018-Feb-17 07:30N 40°40' W 074°00'0 0.0
2018-Feb-17 07:00N 40°40' W 074°00'0 0.0
2018-Feb-17 06:30N 40°40' W 074°00'0 0.0
2018-Feb-17 06:00N 40°40' W 074°00'0 0.0
2018-Feb-17 05:30N 40°40' W 074°00'0 0.0
2018-Feb-17 05:00N 40°40' W 074°00'0 0.0
2018-Feb-17 04:30N 40°40' W 074°00'0 0.0
2018-Feb-17 04:00N 40°40' W 074°00'0 0.0
2018-Feb-17 03:30N 40°40' W 074°00'0 0.0
2018-Feb-17 03:00N 40°40' W 074°00'0 0.0
2018-Feb-17 02:30N 40°40' W 074°00'0 0.0
2018-Feb-17 02:00N 40°40' W 074°00'0 0.0
2018-Feb-17 01:30N 40°40' W 074°00'0 0.0
2018-Feb-17 01:00N 40°40' W 074°00'0 0.0
2018-Feb-17 00:30N 40°40' W 074°00'0 0.0
2018-Feb-17 00:00N 40°40' W 074°00'0 0.0
2018-Feb-16 23:30N 40°40' W 074°00'0 0.0
2018-Feb-16 22:56N 40°40' W 074°00'0 0.0
2018-Feb-16 22:30N 40°40' W 074°00'0 0.0
2018-Feb-16 22:00N 40°40' W 074°00'0 0.0
2018-Feb-16 21:30N 40°40' W 074°00'0 0.0
2018-Feb-16 21:00N 40°40' W 074°00'0 0.0
2018-Feb-16 20:30N 40°40' W 074°00'0 0.0
2018-Feb-16 20:00N 40°40' W 074°00'0 0.0
2018-Feb-16 19:30N 40°40' W 074°00'0 0.0
2018-Feb-16 19:00N 40°40' W 074°00'0 0.0
2018-Feb-16 18:30N 40°40' W 074°00'0 0.2
2018-Feb-16 18:00N 40°40' W 074°00'0 0.6
2018-Feb-16 17:30N 40°40' W 073°60'0 0.4
2018-Feb-16 17:00N 40°40' W 074°00'1 1.9
2018-Feb-16 16:30N 40°40' W 074°01'3 6.1
2018-Feb-16 16:00N 40°43' W 074°01'3 5.4
2018-Feb-16 15:30N 40°46' W 074°00'2 4.5
2018-Feb-16 14:59N 40°48' W 073°59'2 4.0
2018-Feb-16 14:30N 40°50' W 073°58'2 4.3
2018-Feb-16 14:00N 40°52' W 073°57'  
2018-Feb-13 20:20N 40°55' W 073°55'2 4.5
2018-Feb-13 19:58N 40°54' W 073°55'2 4.2
2018-Feb-13 19:30N 40°52' W 073°56'2 3.8
2018-Feb-13 19:00N 40°50' W 073°57'2 3.6
2018-Feb-13 18:30N 40°49' W 073°58'2 3.6
2018-Feb-13 18:00N 40°47' W 073°60'2 4.0
2018-Feb-13 17:30N 40°45' W 074°01'2 4.5
2018-Feb-13 17:00N 40°43' W 074°01'2 4.6
2018-Feb-13 16:30N 40°41' W 074°02'3 5.2
2018-Feb-13 16:01N 40°38' W 074°03'2 4.8
2018-Feb-13 15:30N 40°36' W 074°02'2 4.7
2018-Feb-13 15:00N 40°34' W 074°00'3 6.3
2018-Feb-13 14:30N 40°34' W 073°56'4 7.8
2018-Feb-13 13:57N 40°35' W 073°51'2 0.2
2018-Feb-13 04:38N 40°34' W 073°53'1 7.0
2018-Feb-13 04:30N 40°34' W 073°55'4 7.3
2018-Feb-13 04:00N 40°34' W 073°59'4 8.6
2018-Feb-13 03:30N 40°38' W 074°03'2 3.9
2018-Feb-13 03:00N 40°39' W 074°02'4 7.0
2018-Feb-13 02:30N 40°39' W 074°07'0 0.0
2018-Feb-13 02:00N 40°39' W 074°07'0 0.0
2018-Feb-13 01:27N 40°39' W 074°07'0 0.0
2018-Feb-13 01:00N 40°39' W 074°07'0 0.0
2018-Feb-13 00:29N 40°39' W 074°07'2 4.4
2018-Feb-13 00:00N 40°39' W 074°09'  
Track history (hours):
 
Tides and Currents Weather Stations Pressure Air Temp Water Temp Dewpoint Dewpoint Depression Visibility Wind Speed Wind Dir Waves Ship Positions

Nathan G

Owner: New York State Marine Highway Transportation LLC, Troy, NY. More information available from US FCC via Universal Licensing System and Coast Guard Vessel Documentation Center.

Last reported at 2018-Feb-18 01:29 UTC. Time now 2018-Feb-18 03:32 UTC.
Position N 40°34' W 074°01'.

Length 18 m; draft 3 m.

MMSI: 367795910.

Date/timePositionNaut miles runAvg speedWind from/ knotsBaromVisibWave heightAir tempDewpointWater temp
2018-Feb-18 01:29N 40°34' W 074°01'4 7.8
2018-Feb-18 01:00N 40°38' W 074°03'2 3.8
2018-Feb-18 00:30N 40°39' W 074°02'3 5.9
2018-Feb-18 00:00N 40°36' W 074°03'4 6.9
2018-Feb-17 23:29N 40°34' W 073°59'3 5.7
2018-Feb-17 22:58N 40°34' W 073°55'3 5.7
2018-Feb-17 22:29N 40°35' W 073°52'9 1.0
2018-Feb-17 13:37N 40°39' W 074°02'1 7.0
2018-Feb-17 13:30N 40°40' W 074°01'1 1.6
2018-Feb-17 13:00N 40°40' W 074°00'0 0.0
2018-Feb-17 12:30N 40°40' W 074°00'0 0.0
2018-Feb-17 12:00N 40°40' W 074°00'0 0.0
2018-Feb-17 11:30N 40°40' W 074°00'0 0.0
2018-Feb-17 11:00N 40°40' W 074°00'0 0.0
2018-Feb-17 10:30N 40°40' W 074°00'0 0.0
2018-Feb-17 10:00N 40°40' W 074°00'0 0.0
2018-Feb-17 09:30N 40°40' W 074°00'0 0.0
2018-Feb-17 09:00N 40°40' W 074°00'0 0.0
2018-Feb-17 08:30N 40°40' W 074°00'0 0.0
2018-Feb-17 08:00N 40°40' W 074°00'0 0.0
2018-Feb-17 07:30N 40°40' W 074°00'0 0.0
2018-Feb-17 07:00N 40°40' W 074°00'0 0.0
2018-Feb-17 06:30N 40°40' W 074°00'0 0.0
2018-Feb-17 06:00N 40°40' W 074°00'0 0.0
2018-Feb-17 05:30N 40°40' W 074°00'0 0.0
2018-Feb-17 05:00N 40°40' W 074°00'0 0.0
2018-Feb-17 04:30N 40°40' W 074°00'0 0.0
2018-Feb-17 04:00N 40°40' W 074°00'0 0.0
2018-Feb-17 03:30N 40°40' W 074°00'0 0.0
2018-Feb-17 03:00N 40°40' W 074°00'0 0.0
2018-Feb-17 02:30N 40°40' W 074°00'0 0.0
2018-Feb-17 02:00N 40°40' W 074°00'0 0.0
2018-Feb-17 01:30N 40°40' W 074°00'0 0.0
2018-Feb-17 01:00N 40°40' W 074°00'0 0.0
2018-Feb-17 00:30N 40°40' W 074°00'0 0.0
2018-Feb-17 00:00N 40°40' W 074°00'0 0.0
2018-Feb-16 23:30N 40°40' W 074°00'0 0.0
2018-Feb-16 22:56N 40°40' W 074°00'0 0.0
2018-Feb-16 22:30N 40°40' W 074°00'0 0.0
2018-Feb-16 22:00N 40°40' W 074°00'0 0.0
2018-Feb-16 21:30N 40°40' W 074°00'0 0.0
2018-Feb-16 21:00N 40°40' W 074°00'0 0.0
2018-Feb-16 20:30N 40°40' W 074°00'0 0.0
2018-Feb-16 20:00N 40°40' W 074°00'0 0.0
2018-Feb-16 19:30N 40°40' W 074°00'0 0.0
2018-Feb-16 19:00N 40°40' W 074°00'0 0.0
2018-Feb-16 18:30N 40°40' W 074°00'0 0.2
2018-Feb-16 18:00N 40°40' W 074°00'0 0.6
2018-Feb-16 17:30N 40°40' W 073°60'0 0.4
2018-Feb-16 17:00N 40°40' W 074°00'1 1.9
2018-Feb-16 16:30N 40°40' W 074°01'3 6.1
2018-Feb-16 16:00N 40°43' W 074°01'3 5.4
2018-Feb-16 15:30N 40°46' W 074°00'2 4.5
2018-Feb-16 14:59N 40°48' W 073°59'2 4.0
2018-Feb-16 14:30N 40°50' W 073°58'2 4.3
2018-Feb-16 14:00N 40°52' W 073°57'  
2018-Feb-13 20:20N 40°55' W 073°55'2 4.5
2018-Feb-13 19:58N 40°54' W 073°55'2 4.2
2018-Feb-13 19:30N 40°52' W 073°56'2 3.8
2018-Feb-13 19:00N 40°50' W 073°57'2 3.6
2018-Feb-13 18:30N 40°49' W 073°58'2 3.6
2018-Feb-13 18:00N 40°47' W 073°60'2 4.0
2018-Feb-13 17:30N 40°45' W 074°01'2 4.5
2018-Feb-13 17:00N 40°43' W 074°01'2 4.6
2018-Feb-13 16:30N 40°41' W 074°02'3 5.2
2018-Feb-13 16:01N 40°38' W 074°03'2 4.8
2018-Feb-13 15:30N 40°36' W 074°02'2 4.7
2018-Feb-13 15:00N 40°34' W 074°00'3 6.3
2018-Feb-13 14:30N 40°34' W 073°56'4 7.8
2018-Feb-13 13:57N 40°35' W 073°51'2 0.2
2018-Feb-13 04:38N 40°34' W 073°53'1 7.0
2018-Feb-13 04:30N 40°34' W 073°55'4 7.3
2018-Feb-13 04:00N 40°34' W 073°59'4 8.6
2018-Feb-13 03:30N 40°38' W 074°03'2 3.9
2018-Feb-13 03:00N 40°39' W 074°02'4 7.0
2018-Feb-13 02:30N 40°39' W 074°07'0 0.0
2018-Feb-13 02:00N 40°39' W 074°07'0 0.0
2018-Feb-13 01:27N 40°39' W 074°07'0 0.0
2018-Feb-13 01:00N 40°39' W 074°07'0 0.0
2018-Feb-13 00:29N 40°39' W 074°07'2 4.4
2018-Feb-13 00:00N 40°39' W 074°09'  

Dump ship's entire track history